createdAt,value
2022-12-03T00:00:28.295Z,0.75
2022-12-03T00:01:28.228Z,0.76
2022-12-03T00:02:28.317Z,0.78
2022-12-03T00:03:28.315Z,0.78
2022-12-03T00:04:28.038Z,0.78
2022-12-03T00:05:27.950Z,0.78
2022-12-03T00:06:32.900Z,0.79
2022-12-03T00:09:46.298Z,0.79
2022-12-03T00:10:47.238Z,0.79
2022-12-03T00:11:47.161Z,0.78
2022-12-03T00:12:47.102Z,0.79
2022-12-03T00:13:47.116Z,0.76
2022-12-03T00:14:46.982Z,0.75
2022-12-03T00:15:46.960Z,0.78
2022-12-03T00:16:46.871Z,0.76
2022-12-03T00:17:46.760Z,0.76
2022-12-03T00:18:46.682Z,0.76
2022-12-03T00:19:46.670Z,0.76
2022-12-03T00:20:46.568Z,0.75
2022-12-03T00:21:46.542Z,0.75
2022-12-03T00:22:46.460Z,0.70
2022-12-03T00:23:46.351Z,0.70
2022-12-03T00:24:46.360Z,0.68
2022-12-03T00:25:46.249Z,0.68
2022-12-03T00:29:04.626Z,0.66
2022-12-03T00:30:05.537Z,0.65
2022-12-03T00:31:05.553Z,0.65
2022-12-03T00:32:05.433Z,0.65
2022-12-03T00:33:05.368Z,0.65
2022-12-03T00:34:05.341Z,0.62
2022-12-03T00:35:05.235Z,0.61
2022-12-03T00:36:05.202Z,0.61
2022-12-03T00:37:05.141Z,0.61
2022-12-03T00:38:05.020Z,0.61
2022-12-03T00:39:04.977Z,0.61
2022-12-03T00:40:04.910Z,0.62
2022-12-03T00:41:04.855Z,0.61
2022-12-03T00:42:04.758Z,0.61
2022-12-03T00:43:04.748Z,0.60
2022-12-03T00:44:04.654Z,0.58
2022-12-03T00:45:04.590Z,0.60
2022-12-03T00:46:05.862Z,0.58
2022-12-03T00:47:04.552Z,0.57
2022-12-03T00:48:04.403Z,0.53
2022-12-03T00:49:04.332Z,0.51
2022-12-03T00:50:04.268Z,0.51
2022-12-03T00:51:04.227Z,0.51
2022-12-03T00:52:04.227Z,0.50
2022-12-03T00:53:04.095Z,0.49
2022-12-03T00:54:04.011Z,0.49
2022-12-03T00:55:03.942Z,0.50
2022-12-03T00:56:03.904Z,0.49
2022-12-03T00:57:03.810Z,0.47
2022-12-03T00:58:03.768Z,0.49
2022-12-03T00:59:03.709Z,0.49
2022-12-03T01:00:03.657Z,0.47
2022-12-03T01:01:03.553Z,0.46
2022-12-03T01:02:03.615Z,0.42
2022-12-03T01:03:03.415Z,0.44
2022-12-03T01:04:03.360Z,0.44
2022-12-03T01:05:03.346Z,0.44
2022-12-03T01:06:03.174Z,0.44
2022-12-03T01:07:03.144Z,0.44
2022-12-03T01:08:03.268Z,0.41
2022-12-03T01:09:03.045Z,0.41
2022-12-03T01:10:03.021Z,0.42
2022-12-03T01:11:02.907Z,0.41
2022-12-03T01:12:02.837Z,0.42
2022-12-03T01:13:02.777Z,0.42
2022-12-03T01:14:02.749Z,0.41
2022-12-03T01:15:02.674Z,0.41
2022-12-03T01:16:02.725Z,0.42
2022-12-03T01:17:02.515Z,0.42
2022-12-03T01:18:02.530Z,0.44
2022-12-03T01:19:02.389Z,0.42
2022-12-03T01:20:02.334Z,0.41
2022-12-03T01:21:02.268Z,0.44
2022-12-03T01:22:02.230Z,0.42
2022-12-03T01:23:02.111Z,0.44
2022-12-03T01:24:02.048Z,0.46
2022-12-03T01:25:02.035Z,0.41
2022-12-03T01:26:01.965Z,0.39
2022-12-03T01:27:01.871Z,0.39
2022-12-03T01:28:01.896Z,0.39
2022-12-03T01:29:01.763Z,0.38
2022-12-03T01:30:01.702Z,0.38
2022-12-03T01:31:01.700Z,0.38
2022-12-03T01:32:01.547Z,0.39
2022-12-03T01:33:01.486Z,0.38
2022-12-03T01:34:01.414Z,0.38
2022-12-03T01:35:01.419Z,0.39
2022-12-03T01:36:01.315Z,0.39
2022-12-03T01:37:01.235Z,0.36
2022-12-03T01:38:01.174Z,0.38
2022-12-03T01:39:01.126Z,0.38
2022-12-03T01:40:22.067Z,0.38
2022-12-03T01:41:00.975Z,0.36
2022-12-03T01:42:00.967Z,0.33
2022-12-03T01:43:00.840Z,0.35
2022-12-03T01:44:00.772Z,0.32
2022-12-03T01:45:00.689Z,0.33
2022-12-03T01:46:00.657Z,0.35
2022-12-03T01:47:00.739Z,0.35
2022-12-03T01:48:00.515Z,0.36
2022-12-03T01:49:00.447Z,0.36
2022-12-03T01:50:00.413Z,0.38
2022-12-03T01:51:00.313Z,0.36
2022-12-03T01:52:00.287Z,0.38
2022-12-03T01:53:00.179Z,0.36
2022-12-03T01:54:00.116Z,0.33
2022-12-03T01:55:00.024Z,0.35
2022-12-03T01:56:00.005Z,0.36
2022-12-03T01:56:59.957Z,0.36
2022-12-03T01:58:02.304Z,0.39
2022-12-03T01:58:59.765Z,0.39
2022-12-03T01:59:59.719Z,0.42
2022-12-03T02:00:59.733Z,0.42
2022-12-03T02:01:59.707Z,0.42
2022-12-03T02:02:59.569Z,0.44
2022-12-03T02:03:59.558Z,0.44
2022-12-03T02:04:59.429Z,0.42
2022-12-03T02:05:59.322Z,0.41
2022-12-03T02:06:59.274Z,0.42
2022-12-03T02:07:59.433Z,0.42
2022-12-03T02:08:59.139Z,0.44
2022-12-03T02:09:59.095Z,0.46
2022-12-03T02:10:59.017Z,0.44
2022-12-03T02:11:58.951Z,0.46
2022-12-03T02:12:58.913Z,0.47
2022-12-03T02:13:58.835Z,0.47
2022-12-03T02:14:58.785Z,0.49
2022-12-03T02:16:02.755Z,0.49
2022-12-03T02:16:58.623Z,0.49
2022-12-03T02:17:58.559Z,0.47
2022-12-03T02:18:58.470Z,0.50
2022-12-03T02:19:58.445Z,0.50
2022-12-03T02:20:58.368Z,0.51
2022-12-03T02:21:58.328Z,0.50
2022-12-03T02:22:58.242Z,0.53
2022-12-03T02:23:58.152Z,0.51
2022-12-03T02:24:58.107Z,0.49
2022-12-03T02:25:58.081Z,0.49
2022-12-03T02:26:57.971Z,0.49
2022-12-03T02:27:57.915Z,0.47
2022-12-03T02:28:57.823Z,0.49
2022-12-03T02:29:57.795Z,0.49
2022-12-03T02:30:57.725Z,0.47
2022-12-03T02:31:57.695Z,0.49
2022-12-03T02:32:57.609Z,0.47
2022-12-03T02:34:27.343Z,0.49
2022-12-03T02:34:57.433Z,0.47
2022-12-03T02:36:03.123Z,0.44
2022-12-03T02:36:57.313Z,0.42
2022-12-03T02:37:57.297Z,0.41
2022-12-03T02:38:57.228Z,0.41
2022-12-03T02:39:57.125Z,0.41
2022-12-03T02:40:57.065Z,0.42
2022-12-03T02:41:57.008Z,0.42
2022-12-03T02:42:56.934Z,0.42
2022-12-03T02:43:56.908Z,0.44
2022-12-03T02:45:00.775Z,0.46
2022-12-03T02:45:56.780Z,0.46
2022-12-03T02:46:56.710Z,0.44
2022-12-03T02:47:56.606Z,0.42
2022-12-03T02:48:56.555Z,0.42
2022-12-03T02:49:56.515Z,0.39
2022-12-03T02:50:56.427Z,0.41
2022-12-03T02:54:44.596Z,0.36
2022-12-03T02:55:45.492Z,0.38
2022-12-03T02:56:45.463Z,0.39
2022-12-03T02:57:45.398Z,0.38
2022-12-03T02:58:45.317Z,0.38
2022-12-03T02:59:45.528Z,0.35
2022-12-03T03:00:45.212Z,0.35
2022-12-03T03:01:45.205Z,0.35
2022-12-03T03:02:45.011Z,0.35
2022-12-03T03:03:44.974Z,0.33
2022-12-03T03:04:44.911Z,0.35
2022-12-03T03:05:45.093Z,0.35
2022-12-03T03:06:44.837Z,0.35
2022-12-03T03:07:44.756Z,0.35
2022-12-03T03:08:44.667Z,0.33
2022-12-03T03:09:44.599Z,0.33
2022-12-03T03:10:44.525Z,0.33
2022-12-03T03:12:05.445Z,0.29
2022-12-03T03:12:44.401Z,0.29
2022-12-03T03:13:44.360Z,0.26
2022-12-03T03:14:44.264Z,0.24
2022-12-03T03:15:44.202Z,0.24
2022-12-03T03:16:44.178Z,0.24
2022-12-03T03:17:44.092Z,0.23
2022-12-03T03:18:44.043Z,0.24
2022-12-03T03:19:43.941Z,0.23
2022-12-03T03:20:43.873Z,0.21
2022-12-03T03:21:43.815Z,0.23
2022-12-03T03:22:43.779Z,0.24
2022-12-03T03:23:43.670Z,0.24
2022-12-03T03:24:43.590Z,0.24
2022-12-03T03:25:43.597Z,0.23
2022-12-03T03:26:43.513Z,0.24
2022-12-03T03:27:43.395Z,0.24
2022-12-03T03:28:43.351Z,0.26
2022-12-03T03:29:43.304Z,0.26
2022-12-03T03:30:43.236Z,0.28
2022-12-03T03:31:43.184Z,0.29
2022-12-03T03:32:43.068Z,0.28
2022-12-03T03:33:43.052Z,0.26
2022-12-03T03:34:42.949Z,0.23
2022-12-03T03:35:42.884Z,0.24
2022-12-03T03:36:42.836Z,0.24
2022-12-03T03:37:42.798Z,0.23
2022-12-03T03:38:42.687Z,0.24
2022-12-03T03:39:42.757Z,0.23
2022-12-03T03:40:42.602Z,0.24
2022-12-03T03:41:42.559Z,0.21
2022-12-03T03:42:42.485Z,0.23
2022-12-03T03:43:42.395Z,0.24
2022-12-03T03:44:42.331Z,0.24
2022-12-03T03:45:42.292Z,0.26
2022-12-03T03:46:42.193Z,0.26
2022-12-03T03:47:43.341Z,0.28
2022-12-03T03:48:42.095Z,0.28
2022-12-03T03:49:42.005Z,0.28
2022-12-03T03:50:41.917Z,0.29
2022-12-03T03:51:42.437Z,0.28
2022-12-03T03:52:41.811Z,0.26
2022-12-03T03:53:41.741Z,0.31
2022-12-03T03:54:41.652Z,0.31
2022-12-03T03:55:41.580Z,0.29
2022-12-03T03:56:41.511Z,0.26
2022-12-03T03:57:41.469Z,0.26
2022-12-03T03:58:41.415Z,0.26
2022-12-03T03:59:41.377Z,0.28
2022-12-03T04:00:41.284Z,0.24
2022-12-03T04:01:41.247Z,0.23
2022-12-03T04:02:41.145Z,0.23
2022-12-03T04:03:41.126Z,0.28
2022-12-03T04:04:41.092Z,0.28
2022-12-03T04:05:41.274Z,0.28
2022-12-03T04:06:40.891Z,0.29
2022-12-03T04:07:40.953Z,0.29
2022-12-03T04:08:40.755Z,0.31
2022-12-03T04:09:40.666Z,0.31
2022-12-03T04:10:40.625Z,0.29
2022-12-03T04:11:40.612Z,0.29
2022-12-03T04:12:40.470Z,0.29
2022-12-03T04:13:40.431Z,0.29
2022-12-03T04:14:40.380Z,0.28
2022-12-03T04:15:40.276Z,0.29
2022-12-03T04:16:40.269Z,0.29
2022-12-03T04:17:40.217Z,0.31
2022-12-03T04:18:40.080Z,0.31
2022-12-03T04:19:40.039Z,0.31
2022-12-03T04:20:39.952Z,0.31
2022-12-03T04:21:39.920Z,0.29
2022-12-03T04:22:39.830Z,0.31
2022-12-03T04:24:08.017Z,0.29
2022-12-03T04:24:39.697Z,0.29
2022-12-03T04:25:39.628Z,0.28
2022-12-03T04:26:39.616Z,0.28
2022-12-03T04:27:39.594Z,0.29
2022-12-03T04:28:39.504Z,0.29
2022-12-03T04:29:39.405Z,0.28
2022-12-03T04:30:39.363Z,0.28
2022-12-03T04:31:39.269Z,0.26
2022-12-03T04:32:39.233Z,0.29
2022-12-03T04:33:39.167Z,0.29
2022-12-03T04:34:39.074Z,0.32
2022-12-03T04:35:39.101Z,0.31
2022-12-03T04:36:38.972Z,0.31
2022-12-03T04:37:38.907Z,0.33
2022-12-03T04:38:38.787Z,0.35
2022-12-03T04:39:38.775Z,0.35
2022-12-03T04:40:38.677Z,0.35
2022-12-03T04:41:42.710Z,0.35
2022-12-03T04:42:38.540Z,0.35
2022-12-03T04:43:38.522Z,0.35
2022-12-03T04:44:38.430Z,0.35
2022-12-03T04:45:38.403Z,0.36
2022-12-03T04:46:38.347Z,0.35
2022-12-03T04:47:40.011Z,0.35
2022-12-03T04:48:38.190Z,0.36
2022-12-03T04:49:38.109Z,0.35
2022-12-03T04:50:38.032Z,0.33
2022-12-03T04:51:38.031Z,0.35
2022-12-03T04:52:37.954Z,0.35
2022-12-03T04:53:43.239Z,0.35
2022-12-03T04:54:37.816Z,0.36
2022-12-03T04:55:37.742Z,0.36
2022-12-03T04:56:37.645Z,0.35
2022-12-03T04:57:37.647Z,0.36
2022-12-03T04:58:37.490Z,0.38
2022-12-03T04:59:38.687Z,0.38
2022-12-03T05:00:37.365Z,0.38
2022-12-03T05:01:37.399Z,0.36
2022-12-03T05:02:37.339Z,0.36
2022-12-03T05:03:37.216Z,0.35
2022-12-03T05:04:37.130Z,0.38
2022-12-03T05:05:37.085Z,0.39
2022-12-03T05:06:37.026Z,0.39
2022-12-03T05:07:37.017Z,0.39
2022-12-03T05:08:36.906Z,0.39
2022-12-03T05:09:36.804Z,0.39
2022-12-03T05:10:36.708Z,0.39
2022-12-03T05:11:36.730Z,0.39
2022-12-03T05:12:36.589Z,0.38
2022-12-03T05:13:36.572Z,0.36
2022-12-03T05:14:36.482Z,0.35
2022-12-03T05:15:36.446Z,0.32
2022-12-03T05:16:36.435Z,0.32
2022-12-03T05:18:01.258Z,0.32
2022-12-03T05:18:36.226Z,0.33
2022-12-03T05:19:36.165Z,0.35
2022-12-03T05:20:36.093Z,0.36
2022-12-03T05:21:36.019Z,0.36
2022-12-03T05:22:35.985Z,0.35
2022-12-03T05:23:35.917Z,0.35
2022-12-03T05:24:35.836Z,0.35
2022-12-03T05:25:35.791Z,0.33
2022-12-03T05:26:35.721Z,0.32
2022-12-03T05:27:35.635Z,0.32
2022-12-03T05:28:35.566Z,0.31
2022-12-03T05:29:35.530Z,0.31
2022-12-03T05:30:35.480Z,0.31
2022-12-03T05:31:35.352Z,0.32
2022-12-03T05:32:35.378Z,0.31
2022-12-03T05:33:39.473Z,0.28
2022-12-03T05:34:35.217Z,0.29
2022-12-03T05:35:35.111Z,0.29
2022-12-03T05:36:35.083Z,0.32
2022-12-03T05:37:34.987Z,0.31
2022-12-03T05:38:34.932Z,0.31
2022-12-03T05:39:34.842Z,0.32
2022-12-03T05:40:34.777Z,0.32
2022-12-03T05:41:34.722Z,0.32
2022-12-03T05:42:34.670Z,0.32
2022-12-03T05:43:34.599Z,0.35
2022-12-03T05:44:34.557Z,0.36
2022-12-03T05:45:34.442Z,0.36
2022-12-03T05:46:34.466Z,0.36
2022-12-03T05:47:34.353Z,0.33
2022-12-03T05:48:34.275Z,0.33
2022-12-03T05:49:34.212Z,0.32
2022-12-03T05:50:34.115Z,0.33
2022-12-03T05:51:34.079Z,0.31
2022-12-03T05:52:34.010Z,0.33
2022-12-03T05:55:52.471Z,0.32
2022-12-03T05:56:53.373Z,0.31
2022-12-03T05:57:53.332Z,0.31
2022-12-03T05:58:53.211Z,0.31
2022-12-03T05:59:53.148Z,0.29
2022-12-03T06:00:53.108Z,0.31
2022-12-03T06:01:53.072Z,0.29
2022-12-03T06:02:53.091Z,0.31
2022-12-03T06:03:53.120Z,0.32
2022-12-03T06:04:53.113Z,0.31
2022-12-03T06:05:52.768Z,0.31
2022-12-03T06:06:52.715Z,0.28
2022-12-03T06:07:52.703Z,0.28
2022-12-03T06:08:52.562Z,0.26
2022-12-03T06:09:52.552Z,0.28
2022-12-03T06:10:52.466Z,0.26
2022-12-03T06:11:52.401Z,0.26
2022-12-03T06:12:52.367Z,0.26
2022-12-03T06:13:52.327Z,0.28
2022-12-03T06:14:52.547Z,0.24
2022-12-03T06:15:52.196Z,0.24
2022-12-03T06:16:52.099Z,0.28
2022-12-03T06:17:52.000Z,0.26
2022-12-03T06:18:51.989Z,0.28
2022-12-03T06:19:51.876Z,0.26
2022-12-03T06:20:51.846Z,0.26
2022-12-03T06:21:51.722Z,0.28
2022-12-03T06:22:51.699Z,0.26
2022-12-03T06:23:51.637Z,0.26
2022-12-03T06:24:51.973Z,0.26
2022-12-03T06:25:51.483Z,0.28
2022-12-03T06:26:51.416Z,0.28
2022-12-03T06:27:51.361Z,0.28
2022-12-03T06:28:51.290Z,0.26
2022-12-03T06:29:51.231Z,0.28
2022-12-03T06:30:51.230Z,0.28
2022-12-03T06:31:51.124Z,0.26
2022-12-03T06:32:51.028Z,0.26
2022-12-03T06:33:50.983Z,0.24
2022-12-03T06:34:51.305Z,0.26
2022-12-03T06:35:50.906Z,0.20
2022-12-03T06:36:50.783Z,0.18
2022-12-03T06:37:50.777Z,0.17
2022-12-03T06:38:50.618Z,0.17
2022-12-03T06:39:50.604Z,0.20
2022-12-03T06:40:50.721Z,0.17
2022-12-03T06:41:50.525Z,0.17
2022-12-03T06:42:50.395Z,0.17
2022-12-03T06:43:50.285Z,0.17
2022-12-03T06:44:50.269Z,0.18
2022-12-03T06:45:50.129Z,0.18
2022-12-03T06:46:50.293Z,0.18
2022-12-03T06:47:50.037Z,0.15
2022-12-03T06:49:10.956Z,0.17
2022-12-03T06:49:49.901Z,0.15
2022-12-03T06:50:49.803Z,0.17
2022-12-03T06:51:49.780Z,0.20
2022-12-03T06:52:49.665Z,0.20
2022-12-03T06:53:49.636Z,0.21
2022-12-03T06:54:49.840Z,0.21
2022-12-03T06:55:49.540Z,0.23
2022-12-03T06:56:49.438Z,0.23
2022-12-03T06:57:49.382Z,0.24
2022-12-03T06:58:49.293Z,0.21
2022-12-03T06:59:49.201Z,0.23
2022-12-03T07:00:49.193Z,0.21
2022-12-03T07:01:49.337Z,0.20
2022-12-03T07:02:49.102Z,0.21
2022-12-03T07:03:48.974Z,0.21
2022-12-03T07:04:48.937Z,0.21
2022-12-03T07:05:48.816Z,0.23
2022-12-03T07:06:48.797Z,0.24
2022-12-03T07:07:48.812Z,0.26
2022-12-03T07:08:48.651Z,0.24
2022-12-03T07:09:48.557Z,0.21
2022-12-03T07:10:48.494Z,0.21
2022-12-03T07:11:48.539Z,0.21
2022-12-03T07:12:48.437Z,0.24
2022-12-03T07:13:48.366Z,0.23
2022-12-03T07:14:48.242Z,0.24
2022-12-03T07:15:48.270Z,0.24
2022-12-03T07:16:48.112Z,0.26
2022-12-03T07:17:48.102Z,0.24
2022-12-03T07:18:48.329Z,0.24
2022-12-03T07:19:47.904Z,0.26
2022-12-03T07:20:47.868Z,0.26
2022-12-03T07:21:47.802Z,0.24
2022-12-03T07:22:47.740Z,0.23
2022-12-03T07:23:47.680Z,0.23
2022-12-03T07:24:50.048Z,0.21
2022-12-03T07:25:47.566Z,0.21
2022-12-03T07:26:47.470Z,0.21
2022-12-03T07:27:47.402Z,0.20
2022-12-03T07:28:47.339Z,0.20
2022-12-03T07:29:47.280Z,0.20
2022-12-03T07:30:47.228Z,0.18
2022-12-03T07:31:47.260Z,0.14
2022-12-03T07:32:47.087Z,0.13
2022-12-03T07:33:47.020Z,0.11
2022-12-03T07:34:46.968Z,0.11
2022-12-03T07:35:46.902Z,0.11
2022-12-03T07:36:46.837Z,0.13
2022-12-03T07:37:46.759Z,0.15
2022-12-03T07:38:46.707Z,0.17
2022-12-03T07:39:46.634Z,0.14
2022-12-03T07:40:46.593Z,0.14
2022-12-03T07:41:46.508Z,0.14
2022-12-03T07:42:46.430Z,0.14
2022-12-03T07:43:46.339Z,0.17
2022-12-03T07:44:46.303Z,0.17
2022-12-03T07:45:46.216Z,0.15
2022-12-03T07:46:46.280Z,0.17
2022-12-03T07:47:46.113Z,0.15
2022-12-03T07:48:46.066Z,0.17
2022-12-03T07:49:45.957Z,0.13
2022-12-03T07:50:45.954Z,0.13
2022-12-03T07:51:45.847Z,0.13
2022-12-03T07:52:45.859Z,0.13
2022-12-03T07:53:45.719Z,0.10
2022-12-03T07:54:45.716Z,0.13
2022-12-03T07:55:45.622Z,0.14
2022-12-03T07:56:45.517Z,0.14
2022-12-03T07:57:45.440Z,0.15
2022-12-03T07:58:45.370Z,0.17
2022-12-03T07:59:45.307Z,0.15
2022-12-03T08:01:06.384Z,0.14
2022-12-03T08:01:45.313Z,0.17
2022-12-03T08:02:45.173Z,0.18
2022-12-03T08:03:45.098Z,0.18
2022-12-03T08:04:45.009Z,0.20
2022-12-03T08:05:44.953Z,0.21
2022-12-03T08:06:44.939Z,0.21
2022-12-03T08:07:44.877Z,0.24
2022-12-03T08:08:44.747Z,0.24
2022-12-03T08:09:44.735Z,0.24
2022-12-03T08:10:44.625Z,0.24
2022-12-03T08:11:44.554Z,0.23
2022-12-03T08:12:44.480Z,0.23
2022-12-03T08:13:44.446Z,0.23
2022-12-03T08:14:44.331Z,0.24
2022-12-03T08:15:44.320Z,0.26
2022-12-03T08:16:44.314Z,0.24
2022-12-03T08:17:44.208Z,0.26
2022-12-03T08:18:44.421Z,0.28
2022-12-03T08:19:44.028Z,0.28
2022-12-03T08:20:43.969Z,0.24
2022-12-03T08:21:43.928Z,0.28
2022-12-03T08:22:43.838Z,0.28
2022-12-03T08:23:43.776Z,0.24
2022-12-03T08:24:44.026Z,0.26
2022-12-03T08:25:43.659Z,0.23
2022-12-03T08:26:43.562Z,0.23
2022-12-03T08:27:43.515Z,0.23
2022-12-03T08:28:43.479Z,0.23
2022-12-03T08:29:43.409Z,0.23
2022-12-03T08:30:43.347Z,0.21
2022-12-03T08:31:43.343Z,0.21
2022-12-03T08:32:43.192Z,0.21
2022-12-03T08:33:43.122Z,0.21
2022-12-03T08:34:43.058Z,0.21
2022-12-03T08:35:42.971Z,0.24
2022-12-03T08:36:48.479Z,0.24
2022-12-03T08:37:42.869Z,0.26
2022-12-03T08:38:42.781Z,0.26
2022-12-03T08:39:42.742Z,0.26
2022-12-03T08:40:42.672Z,0.24
2022-12-03T08:41:42.623Z,0.23
2022-12-03T08:42:42.568Z,0.23
2022-12-03T08:43:42.495Z,0.24
2022-12-03T08:44:42.394Z,0.23
2022-12-03T08:45:42.404Z,0.24
2022-12-03T08:46:42.262Z,0.26
2022-12-03T08:47:42.213Z,0.26
2022-12-03T08:48:47.030Z,0.28
2022-12-03T08:49:42.099Z,0.31
2022-12-03T08:50:42.003Z,0.31
2022-12-03T08:51:41.964Z,0.32
2022-12-03T08:52:41.888Z,0.31
2022-12-03T08:53:41.806Z,0.33
2022-12-03T08:55:02.751Z,0.32
2022-12-03T08:55:41.700Z,0.32
2022-12-03T08:56:41.648Z,0.33
2022-12-03T08:57:41.635Z,0.33
2022-12-03T08:58:41.513Z,0.36
2022-12-03T08:59:45.295Z,0.35
2022-12-03T09:00:41.439Z,0.35
2022-12-03T09:01:41.394Z,0.36
2022-12-03T09:02:41.274Z,0.36
2022-12-03T09:03:41.249Z,0.36
2022-12-03T09:04:41.178Z,0.36
2022-12-03T09:05:41.029Z,0.35
2022-12-03T09:06:41.027Z,0.35
2022-12-03T09:07:41.077Z,0.35
2022-12-03T09:08:40.887Z,0.33
2022-12-03T09:09:40.791Z,0.33
2022-12-03T09:10:40.753Z,0.33
2022-12-03T09:11:40.642Z,0.35
2022-12-03T09:12:43.041Z,0.38
2022-12-03T09:13:40.524Z,0.39
2022-12-03T09:14:40.496Z,0.39
2022-12-03T09:15:40.403Z,0.41
2022-12-03T09:16:40.429Z,0.42
2022-12-03T09:17:40.339Z,0.44
2022-12-03T09:18:40.250Z,0.44
2022-12-03T09:19:45.728Z,0.46
2022-12-03T09:20:40.085Z,0.46
2022-12-03T09:21:40.014Z,0.42
2022-12-03T09:22:39.934Z,0.41
2022-12-03T09:23:39.908Z,0.42
2022-12-03T09:24:39.819Z,0.44
2022-12-03T09:25:39.750Z,0.46
2022-12-03T09:26:39.695Z,0.44
2022-12-03T09:27:39.637Z,0.47
2022-12-03T09:28:39.560Z,0.46
2022-12-03T09:29:39.549Z,0.46
2022-12-03T09:30:39.486Z,0.46
2022-12-03T09:31:39.394Z,0.46
2022-12-03T09:32:39.279Z,0.44
2022-12-03T09:33:39.245Z,0.44
2022-12-03T09:34:39.183Z,0.46
2022-12-03T09:35:39.076Z,0.46
2022-12-03T09:36:39.108Z,0.46
2022-12-03T09:37:38.973Z,0.46
2022-12-03T09:38:41.884Z,0.49
2022-12-03T09:39:38.908Z,0.49
2022-12-03T09:40:39.625Z,0.49
2022-12-03T09:41:38.745Z,0.49
2022-12-03T09:42:38.668Z,0.49
2022-12-03T09:44:38.501Z,0.47
2022-12-03T09:45:38.492Z,0.49
2022-12-03T09:46:38.377Z,0.49
2022-12-03T09:47:38.359Z,0.51
2022-12-03T09:48:38.254Z,0.51
2022-12-03T09:49:38.172Z,0.51
2022-12-03T09:50:38.124Z,0.49
2022-12-03T09:51:38.097Z,0.49
2022-12-03T09:52:37.978Z,0.50
2022-12-03T09:53:41.148Z,0.49
2022-12-03T09:54:40.539Z,0.50
2022-12-03T09:55:37.797Z,0.50
2022-12-03T09:56:37.767Z,0.47
2022-12-03T09:57:37.732Z,0.47
2022-12-03T09:58:37.588Z,0.47
2022-12-03T09:59:37.568Z,0.47
2022-12-03T10:00:37.476Z,0.47
2022-12-03T10:01:37.474Z,0.46
2022-12-03T10:02:37.384Z,0.46
2022-12-03T10:03:37.285Z,0.44
2022-12-03T10:04:37.293Z,0.44
2022-12-03T10:05:37.158Z,0.47
2022-12-03T10:06:40.951Z,0.47
2022-12-03T10:07:37.110Z,0.44
2022-12-03T10:08:36.978Z,0.47
2022-12-03T10:09:36.932Z,0.47
2022-12-03T10:10:36.866Z,0.47
2022-12-03T10:11:36.771Z,0.46
2022-12-03T10:12:36.714Z,0.47
2022-12-03T10:13:36.637Z,0.49
2022-12-03T10:14:36.598Z,0.49
2022-12-03T10:15:36.538Z,0.49
2022-12-03T10:16:36.497Z,0.49
2022-12-03T10:17:36.483Z,0.50
2022-12-03T10:18:41.532Z,0.50
2022-12-03T10:19:36.240Z,0.51
2022-12-03T10:20:36.187Z,0.51
2022-12-03T10:21:36.116Z,0.51
2022-12-03T10:22:36.033Z,0.50
2022-12-03T10:23:36.013Z,0.50
2022-12-03T10:24:37.150Z,0.49
2022-12-03T10:25:35.841Z,0.47
2022-12-03T10:26:35.792Z,0.49
2022-12-03T10:27:35.746Z,0.50
2022-12-03T10:28:35.644Z,0.49
2022-12-03T10:29:35.622Z,0.50
2022-12-03T10:30:35.678Z,0.51
2022-12-03T10:31:35.443Z,0.50
2022-12-03T10:32:35.410Z,0.51
2022-12-03T10:33:35.335Z,0.55
2022-12-03T10:34:35.263Z,0.53
2022-12-03T10:35:35.204Z,0.55
2022-12-03T10:36:35.186Z,0.53
2022-12-03T10:37:35.069Z,0.53
2022-12-03T10:38:34.992Z,0.53
2022-12-03T10:39:34.925Z,0.53
2022-12-03T10:40:34.887Z,0.53
2022-12-03T10:41:34.850Z,0.53
2022-12-03T10:42:35.945Z,0.50
2022-12-03T10:43:34.661Z,0.46
2022-12-03T10:44:34.616Z,0.42
2022-12-03T10:45:34.587Z,0.42
2022-12-03T10:46:34.671Z,0.41
2022-12-03T10:47:34.702Z,0.42
2022-12-03T10:48:34.396Z,0.44
2022-12-03T10:49:34.295Z,0.46
2022-12-03T10:50:34.239Z,0.47
2022-12-03T10:51:34.163Z,0.47
2022-12-03T10:52:34.099Z,0.49
2022-12-03T10:53:34.058Z,0.50
2022-12-03T10:54:34.019Z,0.50
2022-12-03T10:55:33.879Z,0.50
2022-12-03T10:56:33.864Z,0.50
2022-12-03T10:57:33.777Z,0.51
2022-12-03T10:58:33.732Z,0.50
2022-12-03T10:59:33.647Z,0.49
2022-12-03T11:00:34.836Z,0.50
2022-12-03T11:01:33.595Z,0.49
2022-12-03T11:02:33.428Z,0.49
2022-12-03T11:03:33.441Z,0.49
2022-12-03T11:04:33.295Z,0.50
2022-12-03T11:05:33.247Z,0.47
2022-12-03T11:06:33.191Z,0.47
2022-12-03T11:07:33.157Z,0.46
2022-12-03T11:08:33.074Z,0.46
2022-12-03T11:09:33.005Z,0.46
2022-12-03T11:10:32.926Z,0.47
2022-12-03T11:11:32.840Z,0.47
2022-12-03T11:12:32.845Z,0.49
2022-12-03T11:13:32.737Z,0.49
2022-12-03T11:14:32.683Z,0.50
2022-12-03T11:15:32.664Z,0.47
2022-12-03T11:16:32.624Z,0.47
2022-12-03T11:17:32.452Z,0.49
2022-12-03T11:18:32.442Z,0.49
2022-12-03T11:19:32.348Z,0.47
2022-12-03T11:20:32.271Z,0.50
2022-12-03T11:21:32.213Z,0.50
2022-12-03T11:22:32.136Z,0.50
2022-12-03T11:23:32.086Z,0.50
2022-12-03T11:24:32.336Z,0.49
2022-12-03T11:25:31.952Z,0.49
2022-12-03T11:26:31.907Z,0.49
2022-12-03T11:27:31.805Z,0.47
2022-12-03T11:28:31.768Z,0.44
2022-12-03T11:29:31.700Z,0.46
2022-12-03T11:30:31.613Z,0.46
2022-12-03T11:31:31.697Z,0.46
2022-12-03T11:32:32.146Z,0.47
2022-12-03T11:33:31.439Z,0.49
2022-12-03T11:34:31.392Z,0.49
2022-12-03T11:35:31.310Z,0.49
2022-12-03T11:36:54.109Z,0.47
2022-12-03T11:37:31.161Z,0.46
2022-12-03T11:38:31.110Z,0.44
2022-12-03T11:39:31.054Z,0.46
2022-12-03T11:40:36.150Z,0.46
2022-12-03T11:41:30.926Z,0.49
2022-12-03T11:42:30.922Z,0.50
2022-12-03T11:43:30.758Z,0.51
2022-12-03T11:44:30.716Z,0.51
2022-12-03T11:45:30.642Z,0.53
2022-12-03T11:46:30.686Z,0.50
2022-12-03T11:47:30.552Z,0.47
2022-12-03T11:48:30.477Z,0.46
2022-12-03T11:49:30.370Z,0.44
2022-12-03T11:50:37.637Z,0.41
2022-12-03T11:51:30.255Z,0.41
2022-12-03T11:52:30.201Z,0.42
2022-12-03T11:53:30.113Z,0.41
2022-12-03T11:56:38.690Z,0.41
2022-12-03T11:57:39.597Z,0.41
2022-12-03T11:58:39.537Z,0.41
2022-12-03T11:59:39.443Z,0.39
2022-12-03T12:00:39.451Z,0.39
2022-12-03T12:01:39.494Z,0.41
2022-12-03T12:02:39.339Z,0.42
2022-12-03T12:03:39.371Z,0.42
2022-12-03T12:04:39.237Z,0.44
2022-12-03T12:05:39.081Z,0.47
2022-12-03T12:06:39.031Z,0.47
2022-12-03T12:07:38.997Z,0.50
2022-12-03T12:08:38.877Z,0.47
2022-12-03T12:09:38.819Z,0.47
2022-12-03T12:10:38.783Z,0.49
2022-12-03T12:11:38.681Z,0.49
2022-12-03T12:12:59.601Z,0.49
2022-12-03T12:13:39.088Z,0.51
2022-12-03T12:14:38.459Z,0.50
2022-12-03T12:15:38.427Z,0.51
2022-12-03T12:16:38.505Z,0.55
2022-12-03T12:17:38.282Z,0.55
2022-12-03T12:18:38.259Z,0.53
2022-12-03T12:19:38.154Z,0.53
2022-12-03T12:20:38.133Z,0.53
2022-12-03T12:21:38.085Z,0.51
2022-12-03T12:22:37.977Z,0.53
2022-12-03T12:23:37.925Z,0.49
2022-12-03T12:24:37.895Z,0.47
2022-12-03T12:25:37.776Z,0.46
2022-12-03T12:26:37.716Z,0.44
2022-12-03T12:27:37.708Z,0.47
2022-12-03T12:28:37.554Z,0.46
2022-12-03T12:29:37.508Z,0.49
2022-12-03T12:30:37.483Z,0.49
2022-12-03T12:31:37.397Z,0.49
2022-12-03T12:32:37.302Z,0.50
2022-12-03T12:33:37.223Z,0.50
2022-12-03T12:34:37.161Z,0.50
2022-12-03T12:35:37.133Z,0.51
2022-12-03T12:36:37.066Z,0.51
2022-12-03T12:37:36.976Z,0.50
2022-12-03T12:38:36.936Z,0.51
2022-12-03T12:39:36.863Z,0.53
2022-12-03T12:40:36.798Z,0.55
2022-12-03T12:41:36.731Z,0.53
2022-12-03T12:42:37.049Z,0.53
2022-12-03T12:43:36.574Z,0.51
2022-12-03T12:44:36.541Z,0.53
2022-12-03T12:45:36.459Z,0.55
2022-12-03T12:46:47.676Z,0.55
2022-12-03T12:47:36.473Z,0.55
2022-12-03T12:48:59.841Z,0.55
2022-12-03T12:49:36.231Z,0.53
2022-12-03T12:50:36.125Z,0.53
2022-12-03T12:51:36.056Z,0.53
2022-12-03T12:52:36.010Z,0.50
2022-12-03T12:53:35.971Z,0.51
2022-12-03T12:54:35.914Z,0.53
2022-12-03T12:55:35.827Z,0.53
2022-12-03T12:56:35.745Z,0.53
2022-12-03T12:57:35.695Z,0.53
2022-12-03T12:58:35.600Z,0.50
2022-12-03T12:59:35.539Z,0.49
2022-12-03T13:00:35.534Z,0.50
2022-12-03T13:01:35.599Z,0.51
2022-12-03T13:02:35.397Z,0.53
2022-12-03T13:03:35.307Z,0.53
2022-12-03T13:04:35.236Z,0.55
2022-12-03T13:05:35.162Z,0.55
2022-12-03T13:06:35.109Z,0.57
2022-12-03T13:07:35.107Z,0.57
2022-12-03T13:08:34.979Z,0.58
2022-12-03T13:09:34.897Z,0.55
2022-12-03T13:10:34.847Z,0.55
2022-12-03T13:11:34.762Z,0.50
2022-12-03T13:12:34.770Z,0.47
2022-12-03T13:13:38.704Z,0.47
2022-12-03T13:14:34.586Z,0.46
2022-12-03T13:15:34.490Z,0.44
2022-12-03T13:16:34.498Z,0.46
2022-12-03T13:17:34.361Z,0.47
2022-12-03T13:18:34.599Z,0.47
2022-12-03T13:19:43.497Z,0.49
2022-12-03T13:20:34.221Z,0.49
2022-12-03T13:21:34.131Z,0.51
2022-12-03T13:22:34.068Z,0.51
2022-12-03T13:23:33.992Z,0.50
2022-12-03T13:24:33.948Z,0.47
2022-12-03T13:25:58.325Z,0.49
2022-12-03T13:26:38.636Z,0.49
2022-12-03T13:27:33.721Z,0.51
2022-12-03T13:28:33.681Z,0.50
2022-12-03T13:29:33.591Z,0.49
2022-12-03T13:30:58.503Z,0.47